createdAt,value
2018-09-02T00:03:44.649Z,4.30
2018-09-02T00:07:38.650Z,4.47
2018-09-02T00:11:32.557Z,4.27
2018-09-02T00:15:26.493Z,3.73
2018-09-02T00:19:20.377Z,3.20
2018-09-02T00:23:14.348Z,3.43
2018-09-02T00:27:10.072Z,3.60
2018-09-02T00:31:03.984Z,3.72
2018-09-02T00:34:58.043Z,3.60
2018-09-02T00:38:52.094Z,3.57
2018-09-02T00:42:46.115Z,3.70
2018-09-02T00:46:40.097Z,3.50
2018-09-02T00:50:34.076Z,4.00
2018-09-02T00:54:28.111Z,3.80
2018-09-02T00:58:22.099Z,4.03
2018-09-02T01:02:16.078Z,3.52
2018-09-02T01:06:10.055Z,4.13
2018-09-02T01:10:04.008Z,4.07
2018-09-02T01:13:58.318Z,3.93
2018-09-02T01:17:52.252Z,4.73
2018-09-02T01:21:46.134Z,4.93
2018-09-02T01:25:40.446Z,4.20
2018-09-02T01:29:34.427Z,4.80
2018-09-02T01:33:28.371Z,4.90
2018-09-02T01:37:22.255Z,4.40
2018-09-02T01:41:16.188Z,5.00
2018-09-02T01:45:10.102Z,5.15
2018-09-02T01:49:04.120Z,4.87
2018-09-02T01:52:58.728Z,5.07
2018-09-02T01:56:53.527Z,5.33
2018-09-02T02:00:47.527Z,5.10
2018-09-02T02:04:42.052Z,4.53
2018-09-02T02:08:36.049Z,4.57
2018-09-02T02:12:30.443Z,5.30
2018-09-02T02:16:24.478Z,5.17
2018-09-02T02:20:18.494Z,5.33
2018-09-02T02:24:12.446Z,4.90
2018-09-02T02:28:06.501Z,5.90
2018-09-02T02:32:00.695Z,5.50
2018-09-02T02:35:54.672Z,5.40
2018-09-02T02:39:48.677Z,5.67
2018-09-02T02:43:42.641Z,5.83
2018-09-02T02:47:36.612Z,5.50
2018-09-02T02:51:30.645Z,5.80
2018-09-02T03:00:33.584Z,5.93
2018-09-02T03:04:27.632Z,5.53
2018-09-02T03:08:22.342Z,5.50
2018-09-02T03:12:16.352Z,6.63
2018-09-02T03:16:10.619Z,6.62
2018-09-02T03:20:04.755Z,5.80
2018-09-02T03:23:58.857Z,6.80
2018-09-02T03:27:52.975Z,6.13
2018-09-02T03:31:46.910Z,6.77
2018-09-02T03:35:40.886Z,6.40
2018-09-02T03:39:34.910Z,6.83
2018-09-02T03:43:28.819Z,6.70
2018-09-02T03:47:22.838Z,7.23
2018-09-02T03:51:17.334Z,7.10
2018-09-02T03:55:11.314Z,6.50
2018-09-02T03:59:10.982Z,6.60
2018-09-02T04:03:05.154Z,6.87
2018-09-02T04:06:59.173Z,7.50
2018-09-02T04:10:53.111Z,7.63
2018-09-02T04:14:47.140Z,6.65
2018-09-02T04:18:41.072Z,7.20
2018-09-02T04:22:35.123Z,7.00
2018-09-02T04:26:29.147Z,6.93
2018-09-02T04:30:23.136Z,7.60
2018-09-02T04:34:17.200Z,7.33
2018-09-02T04:38:11.226Z,7.37
2018-09-02T04:42:05.249Z,7.87
2018-09-02T04:45:59.269Z,7.77
2018-09-02T04:49:53.172Z,7.20
2018-09-02T04:53:47.167Z,7.77
2018-09-02T04:57:42.154Z,7.93
2018-09-02T05:01:36.101Z,8.10
2018-09-02T05:05:30.198Z,8.03
2018-09-02T05:09:24.179Z,7.93
2018-09-02T05:13:18.193Z,7.10
2018-09-02T05:17:12.152Z,8.17
2018-09-02T05:21:06.139Z,8.13
2018-09-02T05:25:00.137Z,8.97
2018-09-02T05:28:54.336Z,7.90
2018-09-02T05:32:48.491Z,8.13
2018-09-02T05:36:42.533Z,8.07
2018-09-02T05:40:36.427Z,7.87
2018-09-02T05:44:30.348Z,8.33
2018-09-02T05:48:24.284Z,8.40
2018-09-02T05:52:18.214Z,7.57
2018-09-02T05:56:12.191Z,8.03
2018-09-02T06:00:06.418Z,8.03
2018-09-02T06:04:00.492Z,8.73
2018-09-02T06:07:55.899Z,8.43
2018-09-02T06:11:49.877Z,8.97
2018-09-02T06:15:45.309Z,8.83
2018-09-02T06:19:39.328Z,9.13
2018-09-02T06:23:33.332Z,9.13
2018-09-02T06:27:27.287Z,8.33
2018-09-02T06:31:21.753Z,8.73
2018-09-02T06:35:15.710Z,8.90
2018-09-02T06:39:11.309Z,8.93
2018-09-02T06:43:05.698Z,8.10
2018-09-02T06:46:59.736Z,9.07
2018-09-02T06:50:54.162Z,9.30
2018-09-02T06:54:48.105Z,9.63
2018-09-02T06:58:42.149Z,9.60
2018-09-02T07:02:36.059Z,10.10
2018-09-02T07:06:30.051Z,8.80
2018-09-02T07:10:24.023Z,8.67
2018-09-02T07:14:18.152Z,9.30
2018-09-02T07:18:12.218Z,9.98
2018-09-02T07:22:06.398Z,10.57
2018-09-02T07:26:00.354Z,9.60
2018-09-02T07:29:54.319Z,9.50
2018-09-02T07:33:48.266Z,9.10
2018-09-02T07:37:43.259Z,8.93
2018-09-02T07:41:37.762Z,9.57
2018-09-02T07:45:31.729Z,8.43
2018-09-02T07:49:25.701Z,9.03
2018-09-02T07:53:19.666Z,8.17
2018-09-02T07:57:13.722Z,7.87
2018-09-02T08:01:07.764Z,7.40
2018-09-02T08:05:01.690Z,7.40
2018-09-02T08:08:55.722Z,7.57
2018-09-02T08:12:49.874Z,7.53
2018-09-02T08:16:43.698Z,7.00
2018-09-02T08:20:37.701Z,6.97
2018-09-02T08:24:31.933Z,6.50
2018-09-02T08:28:25.935Z,5.77
2018-09-02T08:32:19.920Z,5.50
2018-09-02T08:36:13.950Z,4.92
2018-09-02T08:40:07.947Z,5.53
2018-09-02T08:44:01.929Z,4.60
2018-09-02T08:47:55.950Z,4.10
2018-09-02T08:51:50.205Z,3.70
2018-09-02T08:55:44.189Z,3.50
2018-09-02T08:59:38.139Z,3.30
2018-09-02T09:03:32.223Z,3.00
2018-09-02T09:07:27.247Z,2.80
2018-09-02T09:11:21.226Z,3.07
2018-09-02T09:15:15.258Z,2.80
2018-09-02T09:19:09.370Z,3.00
2018-09-02T09:23:03.349Z,2.30
2018-09-02T09:26:58.164Z,2.40
2018-09-02T09:30:52.229Z,2.40
2018-09-02T09:34:47.770Z,2.47
2018-09-02T09:38:41.862Z,2.57
2018-09-02T09:42:36.228Z,2.47
2018-09-02T09:46:30.571Z,2.13
2018-09-02T09:50:24.933Z,2.07
2018-09-02T09:54:19.875Z,2.63
2018-09-02T09:58:14.050Z,2.40
2018-09-02T10:02:08.076Z,2.50
2018-09-02T10:06:02.015Z,2.50
2018-09-02T10:09:55.976Z,2.27
2018-09-02T10:13:50.050Z,2.80
2018-09-02T10:17:44.064Z,1.97
2018-09-02T10:21:38.103Z,2.20
2018-09-02T10:25:33.490Z,2.40
2018-09-02T10:29:27.459Z,2.00
2018-09-02T10:33:21.586Z,2.20
2018-09-02T10:37:15.590Z,2.23
2018-09-02T10:41:09.680Z,2.37
2018-09-02T10:45:03.634Z,2.40
2018-09-02T10:48:57.785Z,2.10
2018-09-02T10:52:51.808Z,2.20
2018-09-02T10:56:45.922Z,2.50
2018-09-02T11:00:39.903Z,2.23
2018-09-02T11:04:33.874Z,2.10
2018-09-02T11:08:27.866Z,2.50
2018-09-02T11:12:21.843Z,2.57
2018-09-02T11:16:15.957Z,2.27
2018-09-02T11:20:10.415Z,2.40
2018-09-02T11:24:04.778Z,3.23
2018-09-02T11:27:58.933Z,2.03
2018-09-02T11:31:53.012Z,2.37
2018-09-02T11:35:47.142Z,2.60
2018-09-02T11:39:41.218Z,2.03
2018-09-02T11:43:35.311Z,2.27
2018-09-02T11:47:29.335Z,2.13
2018-09-02T11:51:23.727Z,2.27
2018-09-02T11:55:17.714Z,2.03
2018-09-02T11:59:11.824Z,2.20
2018-09-02T12:03:05.823Z,2.27
2018-09-02T12:06:59.861Z,2.70
2018-09-02T12:10:53.879Z,2.20
2018-09-02T12:14:47.839Z,2.30
2018-09-02T12:18:41.854Z,2.40
2018-09-02T12:22:35.886Z,2.40
2018-09-02T12:26:30.417Z,2.40
2018-09-02T12:30:24.452Z,2.30
2018-09-02T12:34:18.540Z,2.20
2018-09-02T12:38:12.870Z,2.33
2018-09-02T12:42:09.679Z,2.13
2018-09-02T12:46:06.645Z,2.10
2018-09-02T12:50:06.402Z,2.57
2018-09-02T12:54:00.389Z,2.20
2018-09-02T12:57:54.566Z,2.20
2018-09-02T13:01:48.547Z,2.37
2018-09-02T13:05:42.814Z,2.20
2018-09-02T13:09:37.375Z,2.37
2018-09-02T13:13:31.505Z,2.33
2018-09-02T13:17:25.624Z,2.37
2018-09-02T13:21:19.987Z,2.17
2018-09-02T13:25:14.591Z,2.08
2018-09-02T13:29:08.544Z,2.20
2018-09-02T13:33:02.785Z,2.30
2018-09-02T13:36:56.808Z,2.20
2018-09-02T13:40:50.841Z,2.30
2018-09-02T13:44:45.398Z,2.40
2018-09-02T13:48:39.636Z,2.70
2018-09-02T13:52:33.658Z,3.30
2018-09-02T13:56:27.602Z,2.15
2018-09-02T14:00:21.761Z,2.50
2018-09-02T14:04:16.866Z,2.20
2018-09-02T14:08:10.828Z,2.67
2018-09-02T14:12:04.886Z,2.30
2018-09-02T14:15:58.988Z,2.43
2018-09-02T14:19:53.019Z,2.23
2018-09-02T14:23:47.824Z,2.43
2018-09-02T14:27:42.128Z,2.50
2018-09-02T14:31:36.142Z,2.00
2018-09-02T14:35:30.160Z,2.20
2018-09-02T14:39:24.189Z,2.10
2018-09-02T14:43:18.650Z,1.93
2018-09-02T14:47:12.639Z,2.17
2018-09-02T14:51:06.682Z,2.37
2018-09-02T14:55:00.691Z,2.30
2018-09-02T14:58:54.730Z,2.30
2018-09-02T15:02:48.881Z,2.70
2018-09-02T15:06:43.407Z,2.70
2018-09-02T15:10:37.431Z,2.12
2018-09-02T15:14:31.547Z,2.77
2018-09-02T15:18:25.558Z,2.00
2018-09-02T15:22:20.471Z,2.50
2018-09-02T15:26:14.543Z,2.22
2018-09-02T15:30:08.526Z,2.17
2018-09-02T15:34:02.603Z,2.57
2018-09-02T15:37:56.833Z,2.30
2018-09-02T15:41:50.770Z,2.43
2018-09-02T15:45:44.811Z,2.50
2018-09-02T15:49:38.866Z,2.33
2018-09-02T15:53:32.955Z,2.60
2018-09-02T15:57:27.159Z,2.58
2018-09-02T16:01:22.001Z,2.30
2018-09-02T16:05:16.148Z,2.40
2018-09-02T16:09:11.327Z,2.47
2018-09-02T16:13:05.727Z,2.63
2018-09-02T16:16:59.811Z,2.67
2018-09-02T16:20:53.892Z,3.53
2018-09-02T16:24:52.879Z,2.17
2018-09-02T16:28:47.350Z,2.33
2018-09-02T16:32:41.630Z,2.20
2018-09-02T16:36:35.703Z,2.23
2018-09-02T16:40:29.831Z,2.10
2018-09-02T16:44:24.056Z,2.07
2018-09-02T16:48:18.178Z,2.30
2018-09-02T16:52:13.183Z,2.23
2018-09-02T16:56:07.696Z,2.27
2018-09-02T17:00:01.715Z,2.50
2018-09-02T17:03:59.210Z,2.60
2018-09-02T17:07:53.396Z,2.40
2018-09-02T17:11:47.815Z,2.23
2018-09-02T17:15:42.253Z,2.00
2018-09-02T17:19:38.768Z,2.10
2018-09-02T17:23:33.032Z,2.00
2018-09-02T17:27:27.934Z,1.97
2018-09-02T17:31:24.037Z,2.33
2018-09-02T17:35:18.664Z,2.33
2018-09-02T17:39:13.625Z,2.50
2018-09-02T17:43:08.131Z,2.13
2018-09-02T17:47:02.462Z,2.03
2018-09-02T17:50:56.776Z,2.63
2018-09-02T17:54:51.122Z,2.27
2018-09-02T17:58:45.269Z,2.40
2018-09-02T18:02:39.591Z,2.10
2018-09-02T18:06:33.692Z,2.40
2018-09-02T18:10:29.589Z,2.63
2018-09-02T18:14:23.731Z,2.57
2018-09-02T18:18:17.789Z,2.50
2018-09-02T18:22:12.168Z,2.73
2018-09-02T18:26:06.434Z,2.27
2018-09-02T18:30:00.594Z,2.10
2018-09-02T18:33:54.661Z,2.43
2018-09-02T18:37:48.789Z,2.60
2018-09-02T18:41:42.739Z,2.90
2018-09-02T18:45:36.685Z,2.87
2018-09-02T18:49:30.842Z,2.37
2018-09-02T18:53:26.698Z,2.13
2018-09-02T18:57:21.056Z,2.53
2018-09-02T19:01:16.765Z,2.70
2018-09-02T19:05:11.139Z,2.70
2018-09-02T19:09:07.703Z,2.63
2018-09-02T19:13:01.845Z,2.20
2018-09-02T19:16:55.814Z,2.10
2018-09-02T19:20:50.041Z,2.70
2018-09-02T19:24:44.153Z,2.30
2018-09-02T19:28:38.230Z,2.40
2018-09-02T19:32:32.662Z,2.08
2018-09-02T19:36:26.827Z,2.10
2018-09-02T19:40:20.840Z,2.50
2018-09-02T19:44:14.799Z,2.07
2018-09-02T19:48:08.912Z,2.50
2018-09-02T19:52:03.040Z,2.30
2018-09-02T19:55:57.024Z,2.03
2018-09-02T19:59:51.087Z,2.10
2018-09-02T20:03:46.167Z,2.03
2018-09-02T20:07:40.273Z,2.20
2018-09-02T20:11:34.227Z,2.00
2018-09-02T20:15:28.351Z,2.30
2018-09-02T20:19:22.240Z,2.00
2018-09-02T20:23:16.330Z,2.43
2018-09-02T20:27:10.287Z,2.20
2018-09-02T20:31:04.491Z,2.10
2018-09-02T20:34:58.506Z,2.07
2018-09-02T20:38:52.584Z,2.10
2018-09-02T20:42:46.612Z,2.10
2018-09-02T20:46:40.567Z,1.90
2018-09-02T20:50:34.640Z,2.13
2018-09-02T20:54:29.203Z,2.10
2018-09-02T20:58:23.383Z,1.70
2018-09-02T21:02:17.449Z,1.90
2018-09-02T21:06:11.389Z,2.10
2018-09-02T21:10:06.102Z,2.77
2018-09-02T21:14:00.198Z,2.07
2018-09-02T21:17:54.492Z,2.03
2018-09-02T21:21:49.000Z,2.30
2018-09-02T21:25:43.027Z,2.00
2018-09-02T21:29:37.998Z,2.00
2018-09-02T21:33:32.022Z,2.00
2018-09-02T21:37:26.007Z,2.27
2018-09-02T21:41:20.747Z,2.00
2018-09-02T21:45:17.899Z,2.10
2018-09-02T21:49:12.050Z,2.13
2018-09-02T21:53:06.261Z,2.30
2018-09-02T21:57:01.200Z,2.20
2018-09-02T22:00:55.243Z,2.30
2018-09-02T22:04:49.246Z,2.30
2018-09-02T22:08:43.666Z,2.30
2018-09-02T22:12:37.660Z,2.30
2018-09-02T22:16:32.079Z,2.20
2018-09-02T22:20:26.219Z,2.27
2018-09-02T22:24:20.211Z,2.27
2018-09-02T22:28:16.781Z,2.33
2018-09-02T22:32:10.831Z,2.20
2018-09-02T22:36:04.778Z,2.40
2018-09-02T22:39:58.714Z,2.20
2018-09-02T22:43:52.709Z,2.73
2018-09-02T22:47:46.698Z,2.55
2018-09-02T22:51:41.567Z,2.42
2018-09-02T22:55:35.523Z,2.80
2018-09-02T22:59:29.511Z,2.40
2018-09-02T23:03:30.249Z,2.50
2018-09-02T23:07:24.219Z,2.23
2018-09-02T23:11:18.175Z,2.63
2018-09-02T23:15:12.176Z,2.30
2018-09-02T23:19:06.291Z,2.50
2018-09-02T23:23:00.971Z,2.87
2018-09-02T23:26:55.087Z,2.93
2018-09-02T23:30:49.169Z,3.00
2018-09-02T23:34:43.547Z,3.05
2018-09-02T23:38:37.542Z,2.60
2018-09-02T23:42:31.663Z,2.30
2018-09-02T23:46:25.586Z,2.70
2018-09-02T23:50:19.655Z,2.80
2018-09-02T23:54:13.629Z,2.63
2018-09-02T23:58:07.923Z,2.70
